Time;durP1;ratioP1;P1;durP2;ratioP2;P2;SDS_P1;SDS_P2;PMS_P1;PMS_P2;Temp;Humidity;BMP_temperature;BMP_pressure;BME280_temperature;BME280_humidity;BME280_pressure;Samples;Min_cycle;Max_cycle;Signal;HPM_P1;HPM_P2
2023/02/13 00:01:42;;;;;;;29.47;16.27;;;;;;;0.42;100.00;98152.25;6187527;23;20410;-89
2023/02/13 00:04:08;;;;;;;30.03;17.43;;;;;;;0.41;100.00;98160.09;6189082;23;20016;-89
2023/02/13 00:06:34;;;;;;;28.07;17.07;;;;;;;0.40;100.00;98154.06;6213195;23;20042;-89
2023/02/13 00:09:01;;;;;;;27.83;17.60;;;;;;;0.34;100.00;98150.81;6189418;23;20019;-88
2023/02/13 00:11:40;;;;;;;27.00;16.07;;;;;;;0.31;100.00;98144.00;6188241;23;20016;-88
2023/02/13 00:14:06;;;;;;;32.17;17.20;;;;;;;0.36;100.00;98143.84;6188556;23;20457;-88
2023/02/13 00:16:32;;;;;;;31.10;18.13;;;;;;;0.30;100.00;98144.03;6188871;23;20794;-88
2023/02/13 00:19:41;;;;;;;28.80;17.27;;;;;;;0.27;100.00;98142.41;6187235;23;20074;-88
2023/02/13 00:22:08;;;;;;;36.93;20.60;;;;;;;0.30;100.00;98152.63;6188538;23;20019;-88
2023/02/13 00:24:34;;;;;;;32.53;18.17;;;;;;;0.28;100.00;98156.19;6188105;23;20426;-88
2023/02/13 00:27:11;;;;;;;29.60;17.73;;;;;;;0.28;100.00;98153.59;6188096;23;20935;-87
2023/02/13 00:29:37;;;;;;;36.03;20.77;;;;;;;0.17;100.00;98161.72;6190660;23;20016;-88
2023/02/13 00:32:03;;;;;;;31.50;18.63;;;;;;;0.15;100.00;98159.16;6187877;23;20748;-88
2023/02/13 00:34:29;;;;;;;33.40;19.03;;;;;;;0.14;100.00;98149.72;6214118;23;20012;-88
2023/02/13 00:36:54;;;;;;;33.17;18.50;;;;;;;0.14;100.00;98154.03;6187890;23;20018;-88
2023/02/13 00:39:49;;;;;;;34.07;19.00;;;;;;;0.17;100.00;98156.53;6188380;23;20390;-88
2023/02/13 00:42:25;;;;;;;41.33;21.37;;;;;;;0.14;100.00;98151.44;6187130;23;20542;-87
2023/02/13 00:44:51;;;;;;;34.77;19.00;;;;;;;0.17;100.00;98151.38;6189360;23;20946;-87
2023/02/13 00:47:18;;;;;;;37.30;21.07;;;;;;;0.22;100.00;98150.31;6192468;23;20498;-87
2023/02/13 00:49:44;;;;;;;35.93;20.37;;;;;;;0.19;100.00;98165.06;6194255;23;20415;-87
2023/02/13 00:52:10;;;;;;;41.23;21.17;;;;;;;0.18;100.00;98150.47;6188343;23;20453;-86
2023/02/13 00:54:36;;;;;;;31.80;18.80;;;;;;;0.17;100.00;98151.38;6188743;23;20020;-88
2023/02/13 00:57:02;;;;;;;37.93;20.93;;;;;;;0.18;100.00;98146.13;6188417;23;20015;-87
2023/02/13 00:59:27;;;;;;;32.87;21.10;;;;;;;0.16;100.00;98155.66;6239138;23;20016;-88
2023/02/13 01:01:55;;;;;;;42.43;22.70;;;;;;;0.21;100.00;98156.38;6187744;23;20415;-87
2023/02/13 01:04:24;;;;;;;43.67;22.57;;;;;;;0.19;100.00;98150.41;6194460;23;20019;-88
2023/02/13 01:06:49;;;;;;;46.63;23.23;;;;;;;0.18;100.00;98145.28;6195278;23;20517;-88
2023/02/13 01:09:15;;;;;;;39.10;21.30;;;;;;;0.15;100.00;98147.97;6193066;23;20396;-85
2023/02/13 01:11:41;;;;;;;42.13;21.90;;;;;;;0.16;100.00;98149.66;6188104;23;20008;-88
2023/02/13 01:14:06;;;;;;;37.63;21.30;;;;;;;0.02;100.00;98146.66;6189340;23;20055;-87
2023/02/13 01:16:35;;;;;;;36.40;21.67;;;;;;;0.12;100.00;98143.72;6188048;23;20020;-87
2023/02/13 01:19:01;;;;;;;38.07;20.67;;;;;;;0.06;100.00;98143.91;6189475;23;20016;-88
2023/02/13 01:21:30;;;;;;;34.87;21.90;;;;;;;0.18;100.00;98143.53;6188345;23;20417;-87
2023/02/13 01:24:14;;;;;;;38.63;22.57;;;;;;;0.16;100.00;98142.72;6189372;23;20903;-86
2023/02/13 01:26:43;;;;;;;41.07;21.53;;;;;;;0.21;100.00;98148.63;6213284;23;20449;-87
2023/02/13 01:29:12;;;;;;;46.80;24.00;;;;;;;0.18;100.00;98143.53;6190942;23;20464;-88
2023/02/13 01:31:38;;;;;;;38.43;20.60;;;;;;;0.12;100.00;98143.72;6189960;23;20415;-87
2023/02/13 01:34:24;;;;;;;44.03;22.37;;;;;;;0.08;100.00;98139.53;6191030;23;20419;-87
2023/02/13 01:36:53;;;;;;;40.63;21.67;;;;;;;0.05;100.00;98139.63;6191677;23;20012;-87
2023/02/13 01:39:19;;;;;;;41.40;22.03;;;;;;;0.07;100.00;98132.69;6192449;23;20476;-88
2023/02/13 01:41:45;;;;;;;45.47;23.90;;;;;;;0.09;100.00;98132.63;6193864;23;20418;-88
2023/02/13 01:44:48;;;;;;;41.57;21.50;;;;;;;0.04;100.00;98126.78;6210259;22;20034;-87
2023/02/13 01:47:40;;;;;;;38.40;21.95;;;;;;;0.05;100.00;98128.44;6216262;22;20016;-88
2023/02/13 01:50:20;;;;;;;41.57;21.67;;;;;;;0.03;100.00;98123.31;6196228;23;20447;-89
2023/02/13 01:53:11;;;;;;;38.00;20.47;;;;;;;0.03;100.00;98122.47;6191676;23;20431;-88
2023/02/13 01:55:51;;;;;;;41.73;21.63;;;;;;;-0.02;100.00;98127.78;6197013;23;21154;-88
2023/02/13 01:58:33;;;;;;;40.47;22.03;;;;;;;-0.02;100.00;98120.03;6189894;23;20502;-88
2023/02/13 02:01:00;;;;;;;43.67;23.30;;;;;;;0.12;100.00;98117.84;6189186;23;20419;-87
2023/02/13 02:03:37;;;;;;;40.80;23.30;;;;;;;0.06;100.00;98120.63;6190160;23;20423;-88
2023/02/13 02:06:43;;;;;;;48.17;23.87;;;;;;;0.09;100.00;98117.94;6191908;23;20427;-88
2023/02/13 02:09:19;;;;;;;49.17;23.20;;;;;;;0.08;100.00;98118.84;6191706;23;20750;-88
2023/02/13 02:12:11;;;;;;;45.27;23.40;;;;;;;0.09;100.00;98120.53;6190229;23;20423;-87
2023/02/13 02:14:40;;;;;;;45.67;23.10;;;;;;;0.08;100.00;98115.44;6217471;23;20411;-88
2023/02/13 02:17:07;;;;;;;52.20;25.57;;;;;;;0.13;100.00;98118.69;6192426;23;20949;-88
2023/02/13 02:20:17;;;;;;;47.33;22.93;;;;;;;0.09;100.00;98117.09;6190628;23;20434;-87
2023/02/13 02:23:28;;;;;;;47.73;24.03;;;;;;;0.08;100.00;98115.44;6191365;23;20422;-88
2023/02/13 02:26:14;;;;;;;51.23;25.60;;;;;;;0.10;100.00;98116.19;6186830;23;20423;-89
2023/02/13 02:28:52;;;;;;;50.43;24.60;;;;;;;0.14;100.00;98117.81;6188421;23;21252;-89
2023/02/13 02:32:10;;;;;;;46.83;23.70;;;;;;;0.15;100.00;98114.34;6188982;23;20442;-89
2023/02/13 02:34:41;;;;;;;49.83;23.43;;;;;;;0.05;100.00;98107.75;6109139;23;20431;-88
2023/02/13 02:37:44;;;;;;;46.10;23.27;;;;;;;0.03;100.00;98105.19;6189805;23;20450;-88
2023/02/13 02:40:47;;;;;;;52.80;22.03;;;;;;;-0.05;100.00;98104.59;6188988;23;20450;-89
2023/02/13 02:43:41;;;;;;;50.30;23.63;;;;;;;-0.08;100.00;98100.38;6189448;23;20426;-88
2023/02/13 02:49:58;;;;;;;51.47;22.80;;;;;;;0.02;100.00;98103.53;6231969;23;20073;-88
2023/02/13 02:52:55;;;;;;;43.10;23.10;;;;;;;-0.07;100.00;98096.03;6189490;23;20633;-88
2023/02/13 02:56:00;;;;;;;49.47;24.10;;;;;;;-0.08;100.00;98099.53;6212448;22;20450;-88
2023/02/13 03:07:30;;;;;;;44.87;23.27;;;;;;;-0.19;100.00;98092.13;6217040;23;20430;-88
2023/02/13 03:25:06;;;;;;;53.00;24.23;;;;;;;-0.20;100.00;98112.81;6217855;23;20402;-88
2023/02/13 03:31:30;;;;;;;45.00;21.77;;;;;;;-0.26;100.00;98109.56;6215046;23;20418;-88
2023/02/13 03:34:13;;;;;;;48.80;24.30;;;;;;;-0.29;100.00;98119.13;6217231;23;20442;-88
2023/02/13 03:39:52;;;;;;;48.83;24.63;;;;;;;-0.35;100.00;98122.75;6211259;23;20082;-88
2023/02/13 03:42:31;;;;;;;48.37;24.00;;;;;;;-0.39;100.00;98126.31;6196254;23;20425;-88
2023/02/13 03:51:11;;;;;;;45.83;22.57;;;;;;;-0.46;100.00;98124.81;6192264;23;20435;-88
2023/02/13 03:53:41;;;;;;;45.97;23.63;;;;;;;-0.47;100.00;98130.84;6190950;23;20423;-88
2023/02/13 03:59:14;;;;;;;50.63;23.87;;;;;;;-0.54;100.00;98134.50;6217562;23;20922;-88
2023/02/13 04:01:50;;;;;;;47.93;23.90;;;;;;;-0.47;100.00;98138.59;6191343;23;21235;-88
2023/02/13 04:04:33;;;;;;;47.00;23.50;;;;;;;-0.48;100.00;98144.66;6190290;23;20454;-89
2023/02/13 04:07:07;;;;;;;51.22;23.50;;;;;;;-0.55;100.00;98146.59;6214527;23;20533;-88
2023/02/13 04:09:39;;;;;;;48.37;21.67;;;;;;;-0.48;100.00;98144.66;6189370;23;20820;-88
2023/02/13 04:12:43;;;;;;;48.27;22.87;;;;;;;-0.56;100.00;98144.91;6188926;23;20431;-88
2023/02/13 04:15:20;;;;;;;48.75;23.70;;;;;;;-0.56;100.00;98149.22;6039096;23;20487;-88
2023/02/13 04:17:52;;;;;;;54.67;24.30;;;;;;;-0.59;100.00;98151.91;6176114;23;20122;-88
2023/02/13 04:20:18;;;;;;;54.00;22.37;;;;;;;-0.61;100.00;98159.69;6218156;22;20478;-87
2023/02/13 04:22:46;;;;;;;50.47;22.50;;;;;;;-0.57;100.00;98158.72;6200820;23;20427;-88
2023/02/13 04:25:16;;;;;;;53.70;23.70;;;;;;;-0.58;100.00;98161.34;6190747;23;20008;-88
2023/02/13 04:27:42;;;;;;;58.00;23.97;;;;;;;-0.62;100.00;98155.41;6188806;23;20435;-88
2023/02/13 04:30:09;;;;;;;47.63;22.53;;;;;;;-0.63;100.00;98163.22;6188256;23;20425;-88
2023/02/13 04:32:37;;;;;;;47.30;22.00;;;;;;;-0.61;100.00;98158.84;6187969;23;20000;-88
2023/02/13 04:35:03;;;;;;;47.57;21.40;;;;;;;-0.69;100.00;98163.38;6189429;23;20793;-88
2023/02/13 04:37:29;;;;;;;47.37;23.03;;;;;;;-0.65;100.00;98167.56;6188811;23;20418;-87
2023/02/13 04:40:00;;;;;;;50.70;22.20;;;;;;;-0.63;100.00;98163.22;6189448;23;20020;-88
2023/02/13 04:42:25;;;;;;;53.37;23.60;;;;;;;-0.67;100.00;98162.47;6187573;23;20051;-88
2023/02/13 04:44:51;;;;;;;52.03;22.00;;;;;;;-0.57;100.00;98163.88;6213946;23;20415;-88
2023/02/13 04:47:17;;;;;;;45.90;21.77;;;;;;;-0.62;100.00;98164.91;6188216;23;20605;-88
2023/02/13 04:49:42;;;;;;;50.50;23.83;;;;;;;-0.62;100.00;98163.16;6189832;23;20055;-88
2023/02/13 04:52:08;;;;;;;46.80;21.43;;;;;;;-0.60;100.00;98163.13;6188918;23;20031;-87
2023/02/13 04:54:33;;;;;;;51.67;23.30;;;;;;;-0.64;100.00;98158.91;6190274;23;20008;-88
2023/02/13 04:57:21;;;;;;;42.40;19.33;;;;;;;-0.56;100.00;98163.00;6214211;23;20058;-86
2023/02/13 04:59:47;;;;;;;39.43;19.97;;;;;;;-0.50;100.00;98164.56;6189367;23;20035;-87
2023/02/13 05:02:12;;;;;;;41.97;18.93;;;;;;;-0.51;100.00;98171.44;6187501;23;20434;-88
2023/02/13 05:04:39;;;;;;;36.80;18.23;;;;;;;-0.55;100.00;98158.66;6190704;23;20020;-88
2023/02/13 05:07:12;;;;;;;36.47;17.30;;;;;;;-0.59;100.00;98162.22;6190530;23;20012;-87
2023/02/13 05:09:37;;;;;;;35.55;19.02;;;;;;;-0.54;100.00;98173.28;6216034;23;20383;-87
2023/02/13 05:12:03;;;;;;;32.80;16.40;;;;;;;-0.56;100.00;98168.16;6216160;23;20023;-86
2023/02/13 05:14:29;;;;;;;37.10;18.07;;;;;;;-0.58;100.00;98169.09;6196006;23;20052;-88
2023/02/13 05:16:55;;;;;;;34.20;16.93;;;;;;;-0.59;100.00;98175.16;6194882;23;20012;-87
2023/02/13 05:19:20;;;;;;;32.67;16.03;;;;;;;-0.56;100.00;98164.72;6192436;23;20047;-87
2023/02/13 05:24:30;;;;;;;35.03;16.60;;;;;;;-0.66;100.00;98176.22;6216753;23;20016;-87
2023/02/13 05:27:10;;;;;;;37.70;18.33;;;;;;;-0.64;100.00;98169.25;6191636;23;20427;-88
2023/02/13 05:29:35;;;;;;;42.93;20.17;;;;;;;-0.69;100.00;98176.31;6191704;23;20101;-88
2023/02/13 05:32:08;;;;;;;37.40;18.23;;;;;;;-0.78;100.00;98165.31;6190547;23;20423;-88
2023/02/13 05:34:34;;;;;;;50.58;25.70;;;;;;;-0.81;100.00;98170.56;6190988;23;20093;-88
2023/02/13 05:37:02;;;;;;;51.27;24.90;;;;;;;-0.82;100.00;98168.88;6191212;23;20070;-87
2023/02/13 05:39:27;;;;;;;43.33;21.17;;;;;;;-0.79;100.00;98175.69;6190957;23;20317;-87
2023/02/13 05:41:53;;;;;;;52.90;26.13;;;;;;;-0.82;100.00;98178.38;6213668;23;20419;-87
2023/02/13 05:44:19;;;;;;;49.17;23.87;;;;;;;-0.83;100.00;98172.34;6189274;23;20452;-86
2023/02/13 05:46:44;;;;;;;49.30;24.77;;;;;;;-0.91;100.00;98169.13;6190478;23;20023;-88
2023/02/13 05:49:12;;;;;;;43.53;22.77;;;;;;;-0.92;100.00;98164.84;6191470;23;20047;-88
2023/02/13 05:51:39;;;;;;;43.33;22.93;;;;;;;-0.92;100.00;98164.00;6214322;23;20343;-88
2023/02/13 05:54:05;;;;;;;42.40;22.73;;;;;;;-1.00;100.00;98164.22;6191274;23;20726;-88
2023/02/13 05:56:30;;;;;;;43.07;21.10;;;;;;;-1.01;100.00;98162.50;6191020;23;20454;-88
2023/02/13 05:58:56;;;;;;;37.17;18.60;;;;;;;-0.97;100.00;98166.72;6214490;23;20019;-88
2023/02/13 06:01:23;;;;;;;39.60;19.97;;;;;;;-0.90;100.00;98170.84;6190380;23;20043;-88
2023/02/13 06:03:49;;;;;;;39.63;18.90;;;;;;;-0.83;100.00;98171.50;6192772;23;20008;-90
2023/02/13 06:06:16;;;;;;;36.80;18.83;;;;;;;-0.86;100.00;98167.28;6190222;23;20438;-87
2023/02/13 06:08:42;;;;;;;42.33;19.63;;;;;;;-0.82;100.00;98173.19;6215417;23;20099;-89
2023/02/13 06:11:27;;;;;;;40.80;20.10;;;;;;;-0.81;100.00;98174.88;6190436;23;20458;-88
2023/02/13 06:13:52;;;;;;;41.23;21.90;;;;;;;-0.83;100.00;98177.53;6192323;23;20012;-88
2023/02/13 06:16:18;;;;;;;42.10;22.17;;;;;;;-0.89;100.00;98182.84;6192335;23;20427;-88
2023/02/13 06:18:48;;;;;;;36.97;18.63;;;;;;;-0.93;100.00;98181.25;6193728;23;20012;-88
2023/02/13 06:21:13;;;;;;;37.23;19.50;;;;;;;-0.91;100.00;98182.03;6205631;23;20012;-86
2023/02/13 06:23:39;;;;;;;34.07;17.80;;;;;;;-0.98;100.00;98180.50;6216050;22;20437;-88
2023/02/13 06:26:06;;;;;;;34.27;18.70;;;;;;;-0.99;100.00;98178.81;6244548;22;20000;-88
2023/02/13 06:28:34;;;;;;;39.77;19.30;;;;;;;-0.98;100.00;98177.91;6219219;22;20360;-87
2023/02/13 06:31:00;;;;;;;35.07;18.90;;;;;;;-0.98;100.00;98189.09;6225527;23;20884;-87
2023/02/13 06:33:29;;;;;;;44.60;23.13;;;;;;;-1.03;100.00;98183.22;6193880;23;20510;-87
2023/02/13 06:35:56;;;;;;;49.03;27.67;;;;;;;-1.06;100.00;98185.88;6194299;23;20019;-88
2023/02/13 06:38:38;;;;;;;52.50;30.03;;;;;;;-0.99;100.00;98191.72;6194389;23;20437;-87
2023/02/13 06:41:04;;;;;;;45.13;25.77;;;;;;;-1.02;100.00;98195.22;6197184;23;20419;-89
2023/02/13 06:43:30;;;;;;;39.47;22.97;;;;;;;-1.01;100.00;98196.06;6211013;23;20426;-87
2023/02/13 06:45:56;;;;;;;42.97;21.43;;;;;;;-1.04;100.00;98199.59;6193164;23;20391;-87
2023/02/13 06:48:22;;;;;;;34.07;19.50;;;;;;;-1.00;100.00;98202.94;6193515;23;20435;-87
2023/02/13 06:50:47;;;;;;;34.23;19.70;;;;;;;-0.97;100.00;98202.88;6194626;23;20047;-87
2023/02/13 06:53:13;;;;;;;38.03;20.13;;;;;;;-0.86;100.00;98208.59;6204530;22;20438;-90
2023/02/13 06:55:39;;;;;;;31.63;17.50;;;;;;;-0.78;100.00;98211.81;6219605;22;20016;-91
2023/02/13 06:58:05;;;;;;;33.53;18.43;;;;;;;-0.70;100.00;98216.78;6195886;23;20012;-89
2023/02/13 07:00:31;;;;;;;30.37;16.27;;;;;;;-0.64;100.00;98213.19;6192381;23;20876;-90
2023/02/13 07:03:05;;;;;;;32.43;16.97;;;;;;;-0.59;100.00;98206.16;6217963;23;20407;-90
2023/02/13 07:05:31;;;;;;;32.20;17.53;;;;;;;-0.51;100.00;98209.38;6192278;23;20004;-90
2023/02/13 07:07:59;;;;;;;37.73;18.17;;;;;;;-0.33;100.00;98219.22;6192862;23;20477;-90
2023/02/13 07:10:35;;;;;;;32.53;17.10;;;;;;;-0.24;100.00;98216.34;6194093;23;20438;-90
2023/02/13 07:13:22;;;;;;;29.97;15.93;;;;;;;-0.12;100.00;98207.41;6192141;23;20504;-90
2023/02/13 07:16:01;;;;;;;31.93;17.43;;;;;;;0.12;100.00;98213.56;6220907;23;20519;-89
2023/02/13 07:18:27;;;;;;;30.97;17.17;;;;;;;0.23;100.00;98214.13;6192833;23;20498;-89
2023/02/13 07:20:57;;;;;;;28.20;16.10;;;;;;;0.37;100.00;98207.63;6194608;23;20422;-90
2023/02/13 07:23:23;;;;;;;30.27;15.57;;;;;;;0.52;100.00;98208.91;6195665;23;20012;-90
2023/02/13 07:25:51;;;;;;;23.27;14.33;;;;;;;0.63;100.00;98205.06;6230091;23;20458;-91
2023/02/13 07:28:16;;;;;;;24.40;14.60;;;;;;;0.88;100.00;98207.72;6218205;23;20047;-88
2023/02/13 07:30:42;;;;;;;25.37;14.53;;;;;;;1.06;100.00;98206.25;6190212;23;20449;-89
2023/02/13 07:33:33;;;;;;;23.07;12.87;;;;;;;1.32;100.00;98202.75;6191774;23;20308;-89
2023/02/13 07:36:18;;;;;;;24.03;14.50;;;;;;;1.69;100.00;98203.19;6217371;23;20019;-89
2023/02/13 07:38:43;;;;;;;;;;;;;;;1.75;100.00;98196.03;6217023;23;20407;-89
2023/02/13 07:41:09;;;;;;;23.47;12.67;;;;;;;1.99;100.00;98193.44;6215763;23;19999;-89
2023/02/13 07:43:34;;;;;;;18.83;11.03;;;;;;;2.11;100.00;98188.63;6190350;23;20019;-89
2023/02/13 07:46:15;;;;;;;18.23;11.03;;;;;;;2.46;100.00;98185.53;6196979;23;20016;-89
2023/02/13 07:48:41;;;;;;;18.47;11.23;;;;;;;2.70;100.00;98186.31;6194515;23;20012;-89
2023/02/13 07:51:07;;;;;;;19.00;10.83;;;;;;;2.89;100.00;98178.59;6190473;23;20157;-89
2023/02/13 07:53:32;;;;;;;19.73;11.43;;;;;;;3.75;100.00;98173.09;6189352;23;20340;-89
2023/02/13 07:55:58;;;;;;;19.30;12.20;;;;;;;3.53;100.00;98168.88;6214055;23;20022;-89
2023/02/13 07:58:24;;;;;;;22.43;12.97;;;;;;;3.97;100.00;98163.41;6189907;23;20016;-88
2023/02/13 08:00:50;;;;;;;129.27;57.87;;;;;;;4.59;100.00;98155.28;6214078;23;20035;-90
2023/02/13 08:03:16;;;;;;;20.17;12.70;;;;;;;4.54;100.00;98149.47;6190256;23;20008;-90
2023/02/13 08:05:51;;;;;;;18.10;11.00;;;;;;;3.56;100.00;98157.50;6190137;23;20038;-86
2023/02/13 08:08:17;;;;;;;17.60;12.00;;;;;;;3.54;100.00;98157.53;6190016;23;20055;-87
2023/02/13 08:13:28;;;;;;;18.30;11.20;;;;;;;4.25;100.00;98157.72;6214922;23;20016;-86
2023/02/13 08:15:56;;;;;;;16.13;10.87;;;;;;;3.80;100.00;98158.13;6189707;23;20019;-86
2023/02/13 08:18:21;;;;;;;17.43;10.67;;;;;;;4.21;100.00;98157.97;6190820;23;20613;-86
2023/02/13 08:20:49;;;;;;;18.07;11.23;;;;;;;4.46;100.00;98155.03;6190062;23;20016;-87
2023/02/13 08:23:15;;;;;;;18.57;11.23;;;;;;;4.34;100.00;98146.03;6214496;23;20008;-87
2023/02/13 08:25:41;;;;;;;17.73;10.53;;;;;;;4.18;100.00;98147.69;6191613;23;20731;-89
2023/02/13 08:28:06;;;;;;;15.83;11.00;;;;;;;4.18;100.00;98145.94;6215542;23;20039;-88
2023/02/13 08:30:32;;;;;;;16.83;10.77;;;;;;;4.71;100.00;98142.50;6190240;23;20303;-88
2023/02/13 08:32:58;;;;;;;16.57;10.67;;;;;;;5.19;100.00;98140.09;6190594;23;20020;-88
2023/02/13 08:35:25;;;;;;;15.67;11.00;;;;;;;4.89;100.00;98142.47;6191205;23;20045;-88
2023/02/13 08:37:53;;;;;;;15.27;9.90;;;;;;;5.98;100.00;98134.22;6190611;23;20004;-89
2023/02/13 08:40:19;;;;;;;15.43;10.23;;;;;;;7.17;100.00;98119.50;6191963;23;20070;-89
2023/02/13 08:42:47;;;;;;;14.87;9.53;;;;;;;6.33;100.00;98120.00;6193107;23;20008;-88
2023/02/13 08:45:19;;;;;;;16.70;9.57;;;;;;;5.87;100.00;98129.53;6190912;23;20012;-89
2023/02/13 08:47:45;;;;;;;16.57;9.70;;;;;;;6.71;100.00;98122.22;6190680;23;20020;-89
2023/02/13 08:50:48;;;;;;;;;;;;;;;;;;;;;
2023/02/13 08:56:46;;;;;;;14.50;8.73;;;;;;;7.39;100.00;98121.69;6209590;23;20108;-89
2023/02/13 08:59:12;;;;;;;15.47;9.70;;;;;;;7.47;100.00;98118.59;6189714;23;20389;-89
2023/02/13 09:01:37;;;;;;;13.43;10.07;;;;;;;7.95;100.00;98125.19;6189268;23;20023;-89
2023/02/13 09:04:03;;;;;;;13.60;9.50;;;;;;;8.81;100.00;98118.81;6190199;23;20015;-89
2023/02/13 09:06:29;;;;;;;13.33;8.83;;;;;;;9.58;100.00;98120.53;6190540;23;20016;-89
2023/02/13 09:08:58;;;;;;;14.17;10.03;;;;;;;9.72;100.00;98116.09;6192876;23;20054;-89
2023/02/13 09:11:23;;;;;;;13.37;9.50;;;;;;;9.91;100.00;98113.88;6189334;23;20008;-89
2023/02/13 09:13:52;;;;;;;13.53;8.80;;;;;;;8.79;100.00;98124.19;6190186;23;20462;-89
2023/02/13 09:16:21;;;;;;;12.87;8.87;;;;;;;9.67;100.00;98125.16;6190663;23;20016;-89
2023/02/13 09:18:48;;;;;;;10.67;7.30;;;;;;;9.18;100.00;98132.94;6190151;23;20016;-89
2023/02/13 09:21:14;;;;;;;13.00;9.27;;;;;;;9.07;100.00;98131.03;6190300;23;20016;-89
2023/02/13 09:23:40;;;;;;;11.00;7.93;;;;;;;9.51;100.00;98129.78;6191680;23;20012;-88
2023/02/13 09:26:09;;;;;;;10.33;7.30;;;;;;;8.98;100.00;98126.41;6226438;22;20012;-89
2023/02/13 09:28:36;;;;;;;11.97;7.23;;;;;;;8.24;100.00;98132.97;6243448;22;20011;-89
2023/02/13 09:31:24;;;;;;;11.03;7.03;;;;;;;7.65;100.00;98127.94;6221423;22;20016;-89
2023/02/13 09:33:51;;;;;;;10.53;6.10;;;;;;;6.98;100.00;98132.00;6225912;23;20012;-89
2023/02/13 09:36:20;;;;;;;11.23;6.20;;;;;;;8.82;100.00;98131.00;6215999;23;20086;-89
2023/02/13 09:38:51;;;;;;;10.33;6.20;;;;;;;8.01;100.00;98121.34;6214753;23;20012;-89
2023/02/13 09:41:40;;;;;;;9.20;6.30;;;;;;;8.82;100.00;98123.13;6213481;23;20019;-89
2023/02/13 09:44:32;;;;;;;10.57;6.60;;;;;;;8.76;100.00;98124.38;6213608;23;20016;-88
2023/02/13 09:47:16;;;;;;;8.93;6.07;;;;;;;9.10;100.00;98122.97;6189452;23;20015;-88
2023/02/13 09:53:24;;;;;;;10.80;6.50;;;;;;;7.75;100.00;98130.84;6222336;23;20051;-89
2023/02/13 09:57:08;;;;;;;9.27;6.30;;;;;;;6.51;100.00;98135.59;6222517;23;20016;-88
2023/02/13 09:59:50;;;;;;;10.43;6.70;;;;;;;7.17;100.00;98142.22;6101946;23;20338;-88
2023/02/13 10:02:34;;;;;;;9.97;6.70;;;;;;;8.17;100.00;98129.91;6181586;23;20022;-89
2023/02/13 10:05:06;;;;;;;9.73;6.23;;;;;;;6.98;100.00;98132.00;6191931;23;20012;-89
2023/02/13 10:07:50;;;;;;;10.30;6.47;;;;;;;7.06;100.00;98129.78;6191093;23;20022;-89
2023/02/13 10:10:36;;;;;;;10.30;6.87;;;;;;;7.00;100.00;98132.75;6191460;23;20023;-88
2023/02/13 10:13:24;;;;;;;10.47;6.20;;;;;;;7.85;100.00;98145.03;6191405;23;20016;-88
2023/02/13 10:15:59;;;;;;;9.47;5.67;;;;;;;7.24;100.00;98146.13;6191063;23;20019;-88
2023/02/13 10:18:35;;;;;;;10.93;6.60;;;;;;;7.12;100.00;98145.13;6216335;23;20019;-89
2023/02/13 10:21:12;;;;;;;11.53;6.73;;;;;;;7.84;100.00;98147.75;6191767;23;20097;-88
2023/02/13 10:24:18;;;;;;;12.13;7.17;;;;;;;8.94;100.00;98141.50;6193425;23;20024;-89
2023/02/13 10:26:46;;;;;;;12.00;7.50;;;;;;;6.87;100.00;98152.69;6188624;23;20016;-88
2023/02/13 10:32:09;;;;;;;10.23;6.40;;;;;;;8.06;100.00;98142.84;6223258;23;20012;-89
2023/02/13 10:35:00;;;;;;;12.00;6.20;;;;;;;8.42;100.00;98141.50;6193468;23;20494;-89
2023/02/13 10:37:27;;;;;;;9.73;6.17;;;;;;;6.65;100.00;98151.34;6217430;23;20012;-88
2023/02/13 10:40:00;;;;;;;9.43;5.97;;;;;;;8.24;100.00;98141.69;6191662;23;20035;-89
2023/02/13 10:43:06;;;;;;;11.05;6.45;;;;;;;6.96;100.00;98139.94;6191874;23;20040;-88
2023/02/13 10:45:55;;;;;;;10.93;6.30;;;;;;;7.29;100.00;98136.25;6192055;23;20151;-88
2023/02/13 10:49:02;;;;;;;10.43;6.27;;;;;;;7.45;100.00;98133.56;6217370;23;20022;-88
2023/02/13 10:51:47;;;;;;;9.13;5.83;;;;;;;7.25;100.00;98135.59;6217299;23;20022;-88
2023/02/13 10:54:48;;;;;;;9.97;5.87;;;;;;;7.97;100.00;98119.84;6191939;23;20015;-88
2023/02/13 10:57:23;;;;;;;11.13;7.10;;;;;;;6.98;100.00;98124.16;6192497;23;20012;-89
2023/02/13 11:00:01;;;;;;;9.90;6.30;;;;;;;7.37;100.00;98118.31;6202017;23;20043;-89
2023/02/13 11:02:30;;;;;;;10.13;6.57;;;;;;;7.02;100.00;98107.34;6204297;23;20023;-88
2023/02/13 11:05:18;;;;;;;10.13;6.00;;;;;;;7.94;100.00;98106.94;6204780;23;20064;-88
2023/02/13 11:07:48;;;;;;;10.67;6.97;;;;;;;8.02;100.00;98099.44;6213921;23;20066;-88
2023/02/13 11:10:19;;;;;;;9.80;6.37;;;;;;;7.56;100.00;98102.31;6194695;23;20012;-87
2023/02/13 11:13:16;;;;;;;9.23;5.93;;;;;;;7.16;100.00;98109.97;6219052;23;20008;-86
2023/02/13 11:15:43;;;;;;;10.60;6.40;;;;;;;7.55;100.00;98103.28;6194472;23;20016;-88
2023/02/13 11:18:22;;;;;;;9.43;6.40;;;;;;;7.57;100.00;98096.13;6219479;23;20024;-87
2023/02/13 11:20:58;;;;;;;10.10;6.43;;;;;;;8.23;100.00;98092.81;6194817;23;20008;-87
2023/02/13 11:23:24;;;;;;;11.37;6.40;;;;;;;8.67;100.00;98091.72;6194399;23;20149;-87
2023/02/13 11:26:32;;;;;;;10.40;7.17;;;;;;;8.59;100.00;98090.56;6195703;23;20020;-87
2023/02/13 11:29:17;;;;;;;8.90;5.70;;;;;;;9.08;100.00;98089.88;6199102;23;20014;-87
2023/02/13 11:31:43;;;;;;;9.07;5.87;;;;;;;7.96;100.00;98095.44;6220823;23;20012;-87
2023/02/13 11:34:21;;;;;;;10.87;6.13;;;;;;;8.34;100.00;98091.28;6196442;23;20070;-88
2023/02/13 11:37:06;;;;;;;10.03;6.30;;;;;;;9.14;100.00;98092.94;6223844;23;20012;-90
2023/02/13 11:39:32;;;;;;;10.90;6.10;;;;;;;8.55;100.00;98097.81;6192410;23;20119;-90
2023/02/13 11:42:00;;;;;;;9.17;5.90;;;;;;;8.07;100.00;98097.38;6193426;23;20603;-91
2023/02/13 11:44:30;;;;;;;13.57;8.43;;;;;;;7.59;100.00;98086.44;6192906;23;20012;-91
2023/02/13 11:47:03;;;;;;;10.00;6.23;;;;;;;8.21;100.00;98084.22;6194202;23;20103;-90
2023/02/13 11:49:32;;;;;;;10.60;6.45;;;;;;;8.76;100.00;98081.59;6193570;23;20024;-90
2023/02/13 11:52:23;;;;;;;8.87;5.80;;;;;;;8.52;100.00;98078.78;6203623;23;19995;-90
2023/02/13 11:55:29;;;;;;;11.07;6.10;;;;;;;8.29;100.00;98072.41;6193077;23;20040;-90
2023/02/13 11:58:00;;;;;;;9.53;6.47;;;;;;;8.21;100.00;98070.28;6218721;23;20692;-90
2023/02/13 12:00:36;;;;;;;12.07;6.83;;;;;;;8.62;100.00;98088.59;6193857;23;20020;-90
2023/02/13 12:03:28;;;;;;;11.23;7.43;;;;;;;7.98;100.00;98090.09;6217168;22;20011;-90
2023/02/13 12:06:15;;;;;;;11.30;6.70;;;;;;;8.33;100.00;98081.75;6233180;22;20331;-89
2023/02/13 12:08:44;;;;;;;10.53;7.03;;;;;;;8.90;100.00;98079.69;6190931;23;20011;-89
2023/02/13 12:11:31;;;;;;;12.33;7.63;;;;;;;8.70;100.00;98081.03;6190505;23;20016;-89
2023/02/13 12:13:57;;;;;;;11.77;6.97;;;;;;;8.35;100.00;98074.59;6190731;23;20012;-89
2023/02/13 12:16:37;;;;;;;12.53;7.03;;;;;;;8.57;100.00;98071.47;6215324;23;20015;-88
2023/02/13 12:19:10;;;;;;;11.10;7.03;;;;;;;8.66;100.00;98076.94;6215279;23;20019;-89
2023/02/13 12:21:41;;;;;;;7.75;5.20;;;;;;;8.49;100.00;98074.59;6188243;23;20138;-88
2023/02/13 12:24:32;;;;;;;11.07;6.57;;;;;;;8.84;100.00;98074.03;6213298;23;20493;-90
2023/02/13 12:27:05;;;;;;;10.90;6.80;;;;;;;8.74;100.00;98076.41;6214663;23;20020;-90
2023/02/13 12:29:58;;;;;;;10.07;6.63;;;;;;;9.33;100.00;98071.53;6190329;23;20026;-90
2023/02/13 12:32:48;;;;;;;9.05;4.97;;;;;;;9.28;100.00;98070.16;6215152;23;20094;-90
2023/02/13 12:35:32;;;;;;;11.77;7.23;;;;;;;8.44;100.00;98074.03;6189137;23;20016;-89
2023/02/13 12:38:34;;;;;;;10.17;6.53;;;;;;;9.01;100.00;98068.47;6193718;23;20019;-92
2023/02/13 12:41:26;;;;;;;10.77;6.90;;;;;;;8.73;100.00;98062.47;6195102;23;20012;-92
2023/02/13 12:55:47;;;;;;;10.50;6.67;;;;;;;8.42;100.00;98066.28;6132207;22;20025;-84
2023/02/13 12:58:51;;;;;;;11.20;6.97;;;;;;;8.42;100.00;98070.72;6181617;23;20028;-84
2023/02/13 15:26:34;;;;;;;;;;;;;;;3.16;100.00;98086.44;6210267;23;20112;-84
2023/02/13 15:29:30;;;;;;;21.20;12.30;;;;;;;2.85;100.00;98076.56;6187840;23;20321;-88